sensor_id;sensor_type;location;lat;lon;timestamp;P1;durP1;ratioP1;P2;durP2;ratioP2
77310;SDS011;66371;52.714;5.074;2023-07-24T00:01:17;8.47;;;7.57;;
77310;SDS011;66371;52.714;5.074;2023-07-24T00:03:43;7.63;;;5.70;;
77310;SDS011;66371;52.714;5.074;2023-07-24T00:06:09;8.02;;;6.45;;
77310;SDS011;66371;52.714;5.074;2023-07-24T00:08:34;6.47;;;5.85;;
77310;SDS011;66371;52.714;5.074;2023-07-24T00:10:59;12.85;;;8.02;;
77310;SDS011;66371;52.714;5.074;2023-07-24T00:13:25;7.77;;;5.87;;
77310;SDS011;66371;52.714;5.074;2023-07-24T00:15:50;6.50;;;5.28;;
77310;SDS011;66371;52.714;5.074;2023-07-24T00:18:16;7.88;;;5.40;;
77310;SDS011;66371;52.714;5.074;2023-07-24T00:20:41;9.80;;;4.97;;
77310;SDS011;66371;52.714;5.074;2023-07-24T00:23:07;8.02;;;6.40;;
77310;SDS011;66371;52.714;5.074;2023-07-24T00:25:32;10.95;;;7.20;;
77310;SDS011;66371;52.714;5.074;2023-07-24T00:27:58;8.40;;;6.50;;
77310;SDS011;66371;52.714;5.074;2023-07-24T00:30:23;8.37;;;6.43;;
77310;SDS011;66371;52.714;5.074;2023-07-24T00:32:48;6.53;;;5.63;;
77310;SDS011;66371;52.714;5.074;2023-07-24T00:35:14;7.97;;;6.50;;
77310;SDS011;66371;52.714;5.074;2023-07-24T00:37:39;9.80;;;5.32;;
77310;SDS011;66371;52.714;5.074;2023-07-24T00:40:05;6.70;;;4.88;;
77310;SDS011;66371;52.714;5.074;2023-07-24T00:42:31;6.53;;;4.82;;
77310;SDS011;66371;52.714;5.074;2023-07-24T00:44:56;5.53;;;5.00;;
77310;SDS011;66371;52.714;5.074;2023-07-24T00:47:21;5.57;;;4.97;;
77310;SDS011;66371;52.714;5.074;2023-07-24T00:49:47;7.85;;;4.95;;
77310;SDS011;66371;52.714;5.074;2023-07-24T00:52:13;6.30;;;5.32;;
77310;SDS011;66371;52.714;5.074;2023-07-24T00:54:40;6.60;;;4.72;;
77310;SDS011;66371;52.714;5.074;2023-07-24T00:57:06;9.38;;;5.22;;
77310;SDS011;66371;52.714;5.074;2023-07-24T00:59:32;10.10;;;5.18;;
77310;SDS011;66371;52.714;5.074;2023-07-24T01:04:27;7.45;;;5.80;;
77310;SDS011;66371;52.714;5.074;2023-07-24T01:06:52;8.03;;;4.27;;
77310;SDS011;66371;52.714;5.074;2023-07-24T01:09:18;7.07;;;4.60;;
77310;SDS011;66371;52.714;5.074;2023-07-24T01:11:46;6.72;;;4.97;;
77310;SDS011;66371;52.714;5.074;2023-07-24T01:14:21;9.27;;;4.85;;
77310;SDS011;66371;52.714;5.074;2023-07-24T01:16:52;7.50;;;5.55;;
77310;SDS011;66371;52.714;5.074;2023-07-24T01:19:25;7.57;;;4.30;;
77310;SDS011;66371;52.714;5.074;2023-07-24T01:22:02;8.68;;;4.22;;
77310;SDS011;66371;52.714;5.074;2023-07-24T01:24:47;9.45;;;4.70;;
77310;SDS011;66371;52.714;5.074;2023-07-24T01:27:25;6.55;;;5.63;;
77310;SDS011;66371;52.714;5.074;2023-07-24T01:29:51;8.90;;;4.78;;
77310;SDS011;66371;52.714;5.074;2023-07-24T01:32:16;7.30;;;5.47;;
77310;SDS011;66371;52.714;5.074;2023-07-24T01:34:43;6.72;;;5.30;;
77310;SDS011;66371;52.714;5.074;2023-07-24T01:37:08;6.20;;;4.22;;
77310;SDS011;66371;52.714;5.074;2023-07-24T01:39:36;7.38;;;5.47;;
77310;SDS011;66371;52.714;5.074;2023-07-24T01:42:02;7.40;;;5.80;;
77310;SDS011;66371;52.714;5.074;2023-07-24T01:44:28;7.93;;;4.53;;
77310;SDS011;66371;52.714;5.074;2023-07-24T01:46:53;6.90;;;4.90;;
77310;SDS011;66371;52.714;5.074;2023-07-24T01:49:18;6.03;;;5.37;;
77310;SDS011;66371;52.714;5.074;2023-07-24T01:51:44;10.13;;;4.53;;
77310;SDS011;66371;52.714;5.074;2023-07-24T01:54:09;7.20;;;5.75;;
77310;SDS011;66371;52.714;5.074;2023-07-24T01:56:35;7.28;;;4.55;;
77310;SDS011;66371;52.714;5.074;2023-07-24T01:59:01;5.07;;;3.78;;
77310;SDS011;66371;52.714;5.074;2023-07-24T02:01:26;6.10;;;4.82;;
77310;SDS011;66371;52.714;5.074;2023-07-24T02:03:52;6.15;;;5.05;;
77310;SDS011;66371;52.714;5.074;2023-07-24T02:06:17;6.97;;;4.53;;
77310;SDS011;66371;52.714;5.074;2023-07-24T02:08:42;5.18;;;4.68;;
77310;SDS011;66371;52.714;5.074;2023-07-24T02:11:13;5.28;;;4.25;;
77310;SDS011;66371;52.714;5.074;2023-07-24T02:13:39;7.15;;;4.93;;
77310;SDS011;66371;52.714;5.074;2023-07-24T02:16:04;7.97;;;4.95;;
77310;SDS011;66371;52.714;5.074;2023-07-24T02:18:30;6.85;;;4.10;;
77310;SDS011;66371;52.714;5.074;2023-07-24T02:20:55;5.95;;;3.85;;
77310;SDS011;66371;52.714;5.074;2023-07-24T02:23:21;7.40;;;4.60;;
77310;SDS011;66371;52.714;5.074;2023-07-24T02:25:50;6.10;;;5.13;;
77310;SDS011;66371;52.714;5.074;2023-07-24T02:28:16;8.18;;;5.63;;
77310;SDS011;66371;52.714;5.074;2023-07-24T02:30:42;6.57;;;4.90;;
77310;SDS011;66371;52.714;5.074;2023-07-24T02:33:07;8.50;;;4.30;;
77310;SDS011;66371;52.714;5.074;2023-07-24T02:35:37;9.00;;;5.87;;
77310;SDS011;66371;52.714;5.074;2023-07-24T02:38:06;8.75;;;5.18;;
77310;SDS011;66371;52.714;5.074;2023-07-24T02:40:32;6.55;;;4.60;;
77310;SDS011;66371;52.714;5.074;2023-07-24T02:42:58;7.03;;;4.60;;
77310;SDS011;66371;52.714;5.074;2023-07-24T02:45:23;5.05;;;4.53;;
77310;SDS011;66371;52.714;5.074;2023-07-24T02:47:48;6.47;;;4.20;;
77310;SDS011;66371;52.714;5.074;2023-07-24T02:50:14;8.30;;;4.75;;
77310;SDS011;66371;52.714;5.074;2023-07-24T02:52:39;8.80;;;5.95;;
77310;SDS011;66371;52.714;5.074;2023-07-24T02:55:04;7.32;;;5.10;;
77310;SDS011;66371;52.714;5.074;2023-07-24T02:57:30;5.75;;;4.70;;
77310;SDS011;66371;52.714;5.074;2023-07-24T02:59:55;7.97;;;5.40;;
77310;SDS011;66371;52.714;5.074;2023-07-24T03:02:21;7.40;;;4.50;;
77310;SDS011;66371;52.714;5.074;2023-07-24T03:04:46;7.88;;;5.57;;
77310;SDS011;66371;52.714;5.074;2023-07-24T03:07:11;5.35;;;4.63;;
77310;SDS011;66371;52.714;5.074;2023-07-24T03:09:37;5.57;;;3.67;;
77310;SDS011;66371;52.714;5.074;2023-07-24T03:12:02;6.60;;;4.60;;
77310;SDS011;66371;52.714;5.074;2023-07-24T03:14:28;6.97;;;4.35;;
77310;SDS011;66371;52.714;5.074;2023-07-24T03:16:53;7.65;;;5.00;;
77310;SDS011;66371;52.714;5.074;2023-07-24T03:19:19;7.97;;;3.88;;
77310;SDS011;66371;52.714;5.074;2023-07-24T03:21:45;9.07;;;4.40;;
77310;SDS011;66371;52.714;5.074;2023-07-24T03:24:10;6.97;;;4.60;;
77310;SDS011;66371;52.714;5.074;2023-07-24T03:26:36;6.57;;;3.65;;
77310;SDS011;66371;52.714;5.074;2023-07-24T03:29:01;7.17;;;3.73;;
77310;SDS011;66371;52.714;5.074;2023-07-24T03:31:27;10.50;;;4.43;;
77310;SDS011;66371;52.714;5.074;2023-07-24T03:33:52;10.70;;;4.70;;
77310;SDS011;66371;52.714;5.074;2023-07-24T03:36:17;8.27;;;4.37;;
77310;SDS011;66371;52.714;5.074;2023-07-24T03:38:43;6.67;;;4.73;;
77310;SDS011;66371;52.714;5.074;2023-07-24T03:41:08;6.25;;;4.63;;
77310;SDS011;66371;52.714;5.074;2023-07-24T03:43:33;7.03;;;5.17;;
77310;SDS011;66371;52.714;5.074;2023-07-24T03:45:59;5.93;;;4.60;;
77310;SDS011;66371;52.714;5.074;2023-07-24T03:48:24;8.00;;;4.93;;
77310;SDS011;66371;52.714;5.074;2023-07-24T03:50:50;7.53;;;5.07;;
77310;SDS011;66371;52.714;5.074;2023-07-24T03:53:22;5.80;;;4.50;;
77310;SDS011;66371;52.714;5.074;2023-07-24T03:55:48;5.93;;;5.03;;
77310;SDS011;66371;52.714;5.074;2023-07-24T03:58:13;8.85;;;4.97;;
77310;SDS011;66371;52.714;5.074;2023-07-24T04:00:38;6.97;;;6.18;;
77310;SDS011;66371;52.714;5.074;2023-07-24T04:03:04;6.78;;;4.65;;
77310;SDS011;66371;52.714;5.074;2023-07-24T04:05:29;6.10;;;4.78;;
77310;SDS011;66371;52.714;5.074;2023-07-24T04:07:55;7.75;;;5.70;;
77310;SDS011;66371;52.714;5.074;2023-07-24T04:10:20;7.30;;;4.90;;
77310;SDS011;66371;52.714;5.074;2023-07-24T04:12:45;7.30;;;5.30;;
77310;SDS011;66371;52.714;5.074;2023-07-24T04:15:11;8.27;;;5.90;;
77310;SDS011;66371;52.714;5.074;2023-07-24T04:17:36;8.20;;;5.27;;
77310;SDS011;66371;52.714;5.074;2023-07-24T04:20:03;8.10;;;5.72;;
77310;SDS011;66371;52.714;5.074;2023-07-24T04:22:30;7.70;;;4.85;;
77310;SDS011;66371;52.714;5.074;2023-07-24T04:24:55;8.27;;;4.60;;
77310;SDS011;66371;52.714;5.074;2023-07-24T04:27:20;7.10;;;5.00;;
77310;SDS011;66371;52.714;5.074;2023-07-24T04:29:46;6.63;;;5.03;;
77310;SDS011;66371;52.714;5.074;2023-07-24T04:32:11;9.45;;;5.60;;
77310;SDS011;66371;52.714;5.074;2023-07-24T04:34:36;10.07;;;5.53;;
77310;SDS011;66371;52.714;5.074;2023-07-24T04:37:02;8.13;;;5.78;;
77310;SDS011;66371;52.714;5.074;2023-07-24T04:39:28;9.65;;;6.10;;
77310;SDS011;66371;52.714;5.074;2023-07-24T04:41:53;11.20;;;6.35;;
77310;SDS011;66371;52.714;5.074;2023-07-24T04:44:18;10.75;;;6.47;;
77310;SDS011;66371;52.714;5.074;2023-07-24T04:46:44;11.07;;;6.80;;
77310;SDS011;66371;52.714;5.074;2023-07-24T04:49:09;6.72;;;5.50;;
77310;SDS011;66371;52.714;5.074;2023-07-24T04:51:34;9.10;;;5.80;;
77310;SDS011;66371;52.714;5.074;2023-07-24T04:54:00;10.80;;;7.70;;
77310;SDS011;66371;52.714;5.074;2023-07-24T04:56:25;10.10;;;6.25;;
77310;SDS011;66371;52.714;5.074;2023-07-24T04:58:50;8.90;;;6.23;;
77310;SDS011;66371;52.714;5.074;2023-07-24T05:01:16;7.75;;;6.43;;
77310;SDS011;66371;52.714;5.074;2023-07-24T05:03:41;9.80;;;6.80;;
77310;SDS011;66371;52.714;5.074;2023-07-24T05:06:07;11.73;;;6.50;;
77310;SDS011;66371;52.714;5.074;2023-07-24T05:08:32;9.07;;;7.03;;
77310;SDS011;66371;52.714;5.074;2023-07-24T05:10:58;7.82;;;5.50;;
77310;SDS011;66371;52.714;5.074;2023-07-24T05:13:24;15.57;;;6.53;;
77310;SDS011;66371;52.714;5.074;2023-07-24T05:15:49;10.98;;;6.40;;
77310;SDS011;66371;52.714;5.074;2023-07-24T05:18:15;11.18;;;6.82;;
77310;SDS011;66371;52.714;5.074;2023-07-24T05:20:47;7.97;;;6.63;;
77310;SDS011;66371;52.714;5.074;2023-07-24T05:23:13;11.55;;;6.47;;
77310;SDS011;66371;52.714;5.074;2023-07-24T05:25:39;10.88;;;6.43;;
77310;SDS011;66371;52.714;5.074;2023-07-24T05:28:05;12.18;;;7.38;;
77310;SDS011;66371;52.714;5.074;2023-07-24T05:30:30;10.05;;;6.55;;
77310;SDS011;66371;52.714;5.074;2023-07-24T05:32:56;8.23;;;6.38;;
77310;SDS011;66371;52.714;5.074;2023-07-24T05:35:21;11.38;;;7.00;;
77310;SDS011;66371;52.714;5.074;2023-07-24T05:37:46;10.10;;;7.57;;
77310;SDS011;66371;52.714;5.074;2023-07-24T05:40:12;8.90;;;7.18;;
77310;SDS011;66371;52.714;5.074;2023-07-24T05:42:37;8.02;;;6.18;;
77310;SDS011;66371;52.714;5.074;2023-07-24T05:45:07;10.02;;;6.40;;
77310;SDS011;66371;52.714;5.074;2023-07-24T05:47:33;9.90;;;6.20;;
77310;SDS011;66371;52.714;5.074;2023-07-24T05:49:58;8.63;;;6.88;;
77310;SDS011;66371;52.714;5.074;2023-07-24T05:52:24;7.90;;;6.13;;
77310;SDS011;66371;52.714;5.074;2023-07-24T05:54:49;9.77;;;6.95;;
77310;SDS011;66371;52.714;5.074;2023-07-24T05:57:14;12.40;;;6.67;;
77310;SDS011;66371;52.714;5.074;2023-07-24T05:59:40;9.00;;;5.73;;
77310;SDS011;66371;52.714;5.074;2023-07-24T06:02:05;13.75;;;6.75;;
77310;SDS011;66371;52.714;5.074;2023-07-24T06:04:32;12.05;;;8.05;;
77310;SDS011;66371;52.714;5.074;2023-07-24T06:06:58;7.47;;;6.30;;
77310;SDS011;66371;52.714;5.074;2023-07-24T06:09:23;9.00;;;6.85;;
77310;SDS011;66371;52.714;5.074;2023-07-24T06:11:48;12.88;;;5.60;;
77310;SDS011;66371;52.714;5.074;2023-07-24T06:14:14;12.43;;;6.80;;
77310;SDS011;66371;52.714;5.074;2023-07-24T06:16:39;11.30;;;7.15;;
77310;SDS011;66371;52.714;5.074;2023-07-24T06:19:05;8.30;;;5.45;;
77310;SDS011;66371;52.714;5.074;2023-07-24T06:21:31;7.28;;;5.15;;
77310;SDS011;66371;52.714;5.074;2023-07-24T06:23:56;8.52;;;6.07;;
77310;SDS011;66371;52.714;5.074;2023-07-24T06:26:21;9.23;;;5.47;;
77310;SDS011;66371;52.714;5.074;2023-07-24T06:28:47;12.05;;;5.18;;
77310;SDS011;66371;52.714;5.074;2023-07-24T06:31:12;13.13;;;6.50;;
77310;SDS011;66371;52.714;5.074;2023-07-24T06:33:38;8.73;;;6.18;;
77310;SDS011;66371;52.714;5.074;2023-07-24T06:36:03;8.87;;;6.10;;
77310;SDS011;66371;52.714;5.074;2023-07-24T06:38:29;7.88;;;5.38;;
77310;SDS011;66371;52.714;5.074;2023-07-24T06:40:54;7.13;;;6.03;;
77310;SDS011;66371;52.714;5.074;2023-07-24T06:43:19;8.65;;;5.50;;
77310;SDS011;66371;52.714;5.074;2023-07-24T06:45:45;8.00;;;6.03;;
77310;SDS011;66371;52.714;5.074;2023-07-24T06:48:10;12.32;;;5.80;;
77310;SDS011;66371;52.714;5.074;2023-07-24T06:50:36;8.23;;;4.85;;
77310;SDS011;66371;52.714;5.074;2023-07-24T06:53:01;6.53;;;4.57;;
77310;SDS011;66371;52.714;5.074;2023-07-24T06:55:26;9.30;;;5.28;;
77310;SDS011;66371;52.714;5.074;2023-07-24T06:57:52;8.90;;;5.03;;
77310;SDS011;66371;52.714;5.074;2023-07-24T07:00:17;5.97;;;4.77;;
77310;SDS011;66371;52.714;5.074;2023-07-24T07:02:43;9.98;;;6.57;;
77310;SDS011;66371;52.714;5.074;2023-07-24T07:05:08;7.15;;;6.38;;
77310;SDS011;66371;52.714;5.074;2023-07-24T07:07:33;7.22;;;5.60;;
77310;SDS011;66371;52.714;5.074;2023-07-24T07:09:59;11.07;;;7.30;;
77310;SDS011;66371;52.714;5.074;2023-07-24T07:12:24;10.32;;;5.90;;
77310;SDS011;66371;52.714;5.074;2023-07-24T07:14:49;11.05;;;6.47;;
77310;SDS011;66371;52.714;5.074;2023-07-24T07:17:15;11.25;;;6.72;;
77310;SDS011;66371;52.714;5.074;2023-07-24T07:19:40;9.02;;;6.97;;
77310;SDS011;66371;52.714;5.074;2023-07-24T07:22:06;7.97;;;5.43;;
77310;SDS011;66371;52.714;5.074;2023-07-24T07:24:31;8.18;;;7.40;;
77310;SDS011;66371;52.714;5.074;2023-07-24T07:26:56;9.32;;;6.00;;
77310;SDS011;66371;52.714;5.074;2023-07-24T07:29:22;7.65;;;5.50;;
77310;SDS011;66371;52.714;5.074;2023-07-24T07:31:47;9.60;;;7.10;;
77310;SDS011;66371;52.714;5.074;2023-07-24T07:34:13;10.53;;;6.17;;
77310;SDS011;66371;52.714;5.074;2023-07-24T07:36:38;9.07;;;5.37;;
77310;SDS011;66371;52.714;5.074;2023-07-24T07:39:03;10.40;;;6.55;;
77310;SDS011;66371;52.714;5.074;2023-07-24T07:41:29;8.75;;;5.82;;
77310;SDS011;66371;52.714;5.074;2023-07-24T07:43:54;8.02;;;7.00;;
77310;SDS011;66371;52.714;5.074;2023-07-24T07:46:19;11.98;;;6.50;;
77310;SDS011;66371;52.714;5.074;2023-07-24T07:48:45;10.02;;;6.30;;
77310;SDS011;66371;52.714;5.074;2023-07-24T07:51:14;7.72;;;6.38;;
77310;SDS011;66371;52.714;5.074;2023-07-24T07:53:39;9.52;;;6.47;;
77310;SDS011;66371;52.714;5.074;2023-07-24T07:56:05;6.85;;;5.65;;
77310;SDS011;66371;52.714;5.074;2023-07-24T07:58:30;11.43;;;7.28;;
77310;SDS011;66371;52.714;5.074;2023-07-24T08:00:56;7.90;;;7.00;;
77310;SDS011;66371;52.714;5.074;2023-07-24T08:03:21;7.47;;;6.20;;
77310;SDS011;66371;52.714;5.074;2023-07-24T08:05:47;6.40;;;5.22;;
77310;SDS011;66371;52.714;5.074;2023-07-24T08:08:12;8.50;;;6.13;;
77310;SDS011;66371;52.714;5.074;2023-07-24T08:10:38;8.13;;;6.03;;
77310;SDS011;66371;52.714;5.074;2023-07-24T08:13:04;7.65;;;4.63;;
77310;SDS011;66371;52.714;5.074;2023-07-24T08:15:35;7.38;;;6.15;;
77310;SDS011;66371;52.714;5.074;2023-07-24T08:18:01;9.07;;;5.43;;
77310;SDS011;66371;52.714;5.074;2023-07-24T08:20:26;7.50;;;6.40;;
77310;SDS011;66371;52.714;5.074;2023-07-24T08:22:52;7.27;;;5.27;;
77310;SDS011;66371;52.714;5.074;2023-07-24T08:25:17;7.67;;;6.70;;
77310;SDS011;66371;52.714;5.074;2023-07-24T08:27:42;7.27;;;5.57;;
77310;SDS011;66371;52.714;5.074;2023-07-24T08:30:08;6.90;;;5.97;;
77310;SDS011;66371;52.714;5.074;2023-07-24T08:32:34;6.97;;;4.95;;
77310;SDS011;66371;52.714;5.074;2023-07-24T08:34:59;9.03;;;5.80;;
77310;SDS011;66371;52.714;5.074;2023-07-24T08:37:24;8.47;;;6.30;;
77310;SDS011;66371;52.714;5.074;2023-07-24T08:39:49;11.00;;;5.33;;
77310;SDS011;66371;52.714;5.074;2023-07-24T08:42:15;8.03;;;6.87;;
77310;SDS011;66371;52.714;5.074;2023-07-24T08:44:40;9.30;;;5.78;;
77310;SDS011;66371;52.714;5.074;2023-07-24T08:47:09;8.48;;;5.65;;
77310;SDS011;66371;52.714;5.074;2023-07-24T08:49:37;7.15;;;5.72;;
77310;SDS011;66371;52.714;5.074;2023-07-24T08:52:05;6.90;;;6.15;;
77310;SDS011;66371;52.714;5.074;2023-07-24T08:54:31;6.57;;;5.88;;
77310;SDS011;66371;52.714;5.074;2023-07-24T08:56:59;5.55;;;4.53;;
77310;SDS011;66371;52.714;5.074;2023-07-24T08:59:25;6.50;;;4.68;;
77310;SDS011;66371;52.714;5.074;2023-07-24T09:01:50;5.25;;;4.50;;
77310;SDS011;66371;52.714;5.074;2023-07-24T09:04:17;5.93;;;5.22;;
77310;SDS011;66371;52.714;5.074;2023-07-24T09:06:42;7.63;;;4.68;;
77310;SDS011;66371;52.714;5.074;2023-07-24T09:09:14;5.82;;;5.20;;
77310;SDS011;66371;52.714;5.074;2023-07-24T09:11:50;7.72;;;6.20;;
77310;SDS011;66371;52.714;5.074;2023-07-24T09:14:23;6.40;;;5.45;;
77310;SDS011;66371;52.714;5.074;2023-07-24T09:17:01;5.80;;;5.30;;
77310;SDS011;66371;52.714;5.074;2023-07-24T09:19:34;5.15;;;4.65;;
77310;SDS011;66371;52.714;5.074;2023-07-24T09:22:10;5.45;;;4.53;;
77310;SDS011;66371;52.714;5.074;2023-07-24T09:24:37;5.75;;;4.18;;
77310;SDS011;66371;52.714;5.074;2023-07-24T09:27:04;7.50;;;5.28;;
77310;SDS011;66371;52.714;5.074;2023-07-24T09:29:32;8.60;;;5.13;;
77310;SDS011;66371;52.714;5.074;2023-07-24T09:32:01;7.13;;;5.03;;
77310;SDS011;66371;52.714;5.074;2023-07-24T09:34:27;7.25;;;5.40;;
77310;SDS011;66371;52.714;5.074;2023-07-24T09:36:52;6.28;;;5.68;;
77310;SDS011;66371;52.714;5.074;2023-07-24T09:39:27;6.67;;;5.17;;
77310;SDS011;66371;52.714;5.074;2023-07-24T09:41:52;7.88;;;6.30;;
77310;SDS011;66371;52.714;5.074;2023-07-24T09:44:19;6.65;;;4.55;;
77310;SDS011;66371;52.714;5.074;2023-07-24T09:46:45;7.50;;;5.70;;
77310;SDS011;66371;52.714;5.074;2023-07-24T09:49:10;6.18;;;5.57;;
77310;SDS011;66371;52.714;5.074;2023-07-24T09:51:37;7.13;;;5.32;;
77310;SDS011;66371;52.714;5.074;2023-07-24T09:54:06;8.07;;;6.22;;
77310;SDS011;66371;52.714;5.074;2023-07-24T09:56:42;7.32;;;5.80;;
77310;SDS011;66371;52.714;5.074;2023-07-24T09:59:08;6.07;;;5.43;;
77310;SDS011;66371;52.714;5.074;2023-07-24T10:01:34;7.35;;;6.30;;
77310;SDS011;66371;52.714;5.074;2023-07-24T10:04:01;7.88;;;5.95;;
77310;SDS011;66371;52.714;5.074;2023-07-24T10:06:28;9.90;;;5.85;;
77310;SDS011;66371;52.714;5.074;2023-07-24T10:08:54;8.70;;;6.50;;
77310;SDS011;66371;52.714;5.074;2023-07-24T10:11:22;6.63;;;5.57;;
77310;SDS011;66371;52.714;5.074;2023-07-24T10:13:48;8.50;;;6.10;;
77310;SDS011;66371;52.714;5.074;2023-07-24T10:16:15;7.38;;;5.03;;
77310;SDS011;66371;52.714;5.074;2023-07-24T10:18:42;6.88;;;6.28;;
77310;SDS011;66371;52.714;5.074;2023-07-24T10:21:10;7.40;;;6.47;;
77310;SDS011;66371;52.714;5.074;2023-07-24T10:23:36;5.00;;;4.50;;
77310;SDS011;66371;52.714;5.074;2023-07-24T10:26:05;6.97;;;6.10;;
77310;SDS011;66371;52.714;5.074;2023-07-24T10:28:32;6.65;;;5.93;;
77310;SDS011;66371;52.714;5.074;2023-07-24T10:31:00;6.80;;;5.43;;
77310;SDS011;66371;52.714;5.074;2023-07-24T10:33:29;6.50;;;5.90;;
77310;SDS011;66371;52.714;5.074;2023-07-24T10:36:03;6.45;;;5.38;;
77310;SDS011;66371;52.714;5.074;2023-07-24T10:38:34;8.98;;;7.15;;
77310;SDS011;66371;52.714;5.074;2023-07-24T10:41:02;6.97;;;6.35;;
77310;SDS011;66371;52.714;5.074;2023-07-24T10:43:29;6.70;;;5.82;;
77310;SDS011;66371;52.714;5.074;2023-07-24T10:46:04;7.47;;;5.70;;
77310;SDS011;66371;52.714;5.074;2023-07-24T10:48:29;6.47;;;5.43;;
77310;SDS011;66371;52.714;5.074;2023-07-24T10:50:55;8.10;;;6.55;;
77310;SDS011;66371;52.714;5.074;2023-07-24T10:53:21;7.47;;;6.00;;
77310;SDS011;66371;52.714;5.074;2023-07-24T10:55:47;5.05;;;4.55;;
77310;SDS011;66371;52.714;5.074;2023-07-24T10:58:13;5.47;;;4.03;;
77310;SDS011;66371;52.714;5.074;2023-07-24T11:00:39;4.38;;;3.97;;
77310;SDS011;66371;52.714;5.074;2023-07-24T11:03:08;5.70;;;3.47;;
77310;SDS011;66371;52.714;5.074;2023-07-24T11:05:41;4.15;;;3.25;;
77310;SDS011;66371;52.714;5.074;2023-07-24T11:08:18;5.22;;;3.67;;
77310;SDS011;66371;52.714;5.074;2023-07-24T11:10:45;4.78;;;3.15;;
77310;SDS011;66371;52.714;5.074;2023-07-24T11:13:18;4.95;;;3.75;;
77310;SDS011;66371;52.714;5.074;2023-07-24T11:15:48;3.78;;;2.88;;
77310;SDS011;66371;52.714;5.074;2023-07-24T11:18:14;3.70;;;3.17;;
77310;SDS011;66371;52.714;5.074;2023-07-24T11:20:45;3.92;;;3.53;;
77310;SDS011;66371;52.714;5.074;2023-07-24T11:23:12;7.18;;;2.97;;
77310;SDS011;66371;52.714;5.074;2023-07-24T11:25:38;3.72;;;3.42;;
77310;SDS011;66371;52.714;5.074;2023-07-24T11:28:08;2.63;;;2.28;;
77310;SDS011;66371;52.714;5.074;2023-07-24T11:30:35;4.28;;;3.97;;
77310;SDS011;66371;52.714;5.074;2023-07-24T11:33:02;4.78;;;4.38;;
77310;SDS011;66371;52.714;5.074;2023-07-24T11:35:28;5.25;;;4.75;;
77310;SDS011;66371;52.714;5.074;2023-07-24T11:37:54;6.47;;;5.72;;
77310;SDS011;66371;52.714;5.074;2023-07-24T11:40:19;5.53;;;4.97;;
77310;SDS011;66371;52.714;5.074;2023-07-24T11:42:46;5.05;;;4.65;;
77310;SDS011;66371;52.714;5.074;2023-07-24T11:45:13;5.38;;;4.88;;
77310;SDS011;66371;52.714;5.074;2023-07-24T11:47:42;6.53;;;6.03;;
77310;SDS011;66371;52.714;5.074;2023-07-24T11:50:12;4.65;;;4.15;;
77310;SDS011;66371;52.714;5.074;2023-07-24T11:52:42;4.38;;;3.97;;
77310;SDS011;66371;52.714;5.074;2023-07-24T11:55:30;4.05;;;3.75;;
77310;SDS011;66371;52.714;5.074;2023-07-24T11:58:00;3.47;;;3.17;;
77310;SDS011;66371;52.714;5.074;2023-07-24T12:00:26;3.60;;;3.30;;
77310;SDS011;66371;52.714;5.074;2023-07-24T12:02:53;3.75;;;2.78;;
77310;SDS011;66371;52.714;5.074;2023-07-24T12:05:23;5.95;;;3.40;;
77310;SDS011;66371;52.714;5.074;2023-07-24T12:07:49;3.17;;;2.35;;
77310;SDS011;66371;52.714;5.074;2023-07-24T12:10:24;3.15;;;2.35;;
77310;SDS011;66371;52.714;5.074;2023-07-24T12:12:52;3.30;;;3.00;;
77310;SDS011;66371;52.714;5.074;2023-07-24T12:15:18;3.40;;;3.10;;
77310;SDS011;66371;52.714;5.074;2023-07-24T12:17:43;3.63;;;2.40;;
77310;SDS011;66371;52.714;5.074;2023-07-24T12:20:08;4.35;;;3.38;;
77310;SDS011;66371;52.714;5.074;2023-07-24T12:22:35;6.63;;;2.75;;
77310;SDS011;66371;52.714;5.074;2023-07-24T12:25:02;3.33;;;2.22;;
77310;SDS011;66371;52.714;5.074;2023-07-24T12:27:28;3.03;;;1.98;;
77310;SDS011;66371;52.714;5.074;2023-07-24T12:29:53;4.13;;;2.42;;
77310;SDS011;66371;52.714;5.074;2023-07-24T12:32:18;2.90;;;2.53;;
77310;SDS011;66371;52.714;5.074;2023-07-24T12:34:48;2.50;;;2.22;;
77310;SDS011;66371;52.714;5.074;2023-07-24T12:37:15;3.05;;;2.35;;
77310;SDS011;66371;52.714;5.074;2023-07-24T12:39:40;4.32;;;2.67;;
77310;SDS011;66371;52.714;5.074;2023-07-24T12:42:06;4.28;;;2.70;;
77310;SDS011;66371;52.714;5.074;2023-07-24T12:44:31;3.80;;;2.85;;
77310;SDS011;66371;52.714;5.074;2023-07-24T12:46:57;5.03;;;2.85;;
77310;SDS011;66371;52.714;5.074;2023-07-24T12:49:23;3.05;;;2.75;;
77310;SDS011;66371;52.714;5.074;2023-07-24T12:51:48;4.15;;;2.15;;
77310;SDS011;66371;52.714;5.074;2023-07-24T12:54:13;5.35;;;4.03;;
77310;SDS011;66371;52.714;5.074;2023-07-24T12:56:39;3.55;;;2.08;;
77310;SDS011;66371;52.714;5.074;2023-07-24T12:59:05;4.80;;;3.50;;
77310;SDS011;66371;52.714;5.074;2023-07-24T13:01:30;6.43;;;3.70;;
77310;SDS011;66371;52.714;5.074;2023-07-24T13:03:56;4.07;;;3.67;;
77310;SDS011;66371;52.714;5.074;2023-07-24T13:06:21;4.22;;;3.03;;
77310;SDS011;66371;52.714;5.074;2023-07-24T13:08:47;4.70;;;3.00;;
77310;SDS011;66371;52.714;5.074;2023-07-24T13:11:14;4.60;;;3.25;;
77310;SDS011;66371;52.714;5.074;2023-07-24T13:13:39;5.95;;;3.70;;
77310;SDS011;66371;52.714;5.074;2023-07-24T13:16:05;3.83;;;3.00;;
77310;SDS011;66371;52.714;5.074;2023-07-24T13:18:30;5.30;;;3.33;;
77310;SDS011;66371;52.714;5.074;2023-07-24T13:20:56;4.33;;;2.60;;
77310;SDS011;66371;52.714;5.074;2023-07-24T13:23:21;3.58;;;3.28;;
77310;SDS011;66371;52.714;5.074;2023-07-24T13:25:47;4.25;;;2.55;;
77310;SDS011;66371;52.714;5.074;2023-07-24T13:28:12;5.05;;;2.38;;
77310;SDS011;66371;52.714;5.074;2023-07-24T13:30:38;2.90;;;2.00;;
77310;SDS011;66371;52.714;5.074;2023-07-24T13:33:03;4.10;;;3.07;;
77310;SDS011;66371;52.714;5.074;2023-07-24T13:35:28;4.40;;;3.27;;
77310;SDS011;66371;52.714;5.074;2023-07-24T13:37:53;3.73;;;2.90;;
77310;SDS011;66371;52.714;5.074;2023-07-24T13:40:19;3.87;;;2.30;;
77310;SDS011;66371;52.714;5.074;2023-07-24T13:42:44;3.17;;;2.47;;
77310;SDS011;66371;52.714;5.074;2023-07-24T13:45:09;4.17;;;2.27;;
77310;SDS011;66371;52.714;5.074;2023-07-24T13:47:35;4.53;;;2.37;;
77310;SDS011;66371;52.714;5.074;2023-07-24T13:50:00;3.40;;;2.85;;
77310;SDS011;66371;52.714;5.074;2023-07-24T13:52:28;2.83;;;2.10;;
77310;SDS011;66371;52.714;5.074;2023-07-24T13:54:54;3.35;;;2.92;;
77310;SDS011;66371;52.714;5.074;2023-07-24T13:57:19;3.03;;;2.47;;
77310;SDS011;66371;52.714;5.074;2023-07-24T13:59:45;3.22;;;2.00;;
77310;SDS011;66371;52.714;5.074;2023-07-24T14:02:10;3.33;;;2.13;;
77310;SDS011;66371;52.714;5.074;2023-07-24T14:04:37;3.30;;;2.45;;
77310;SDS011;66371;52.714;5.074;2023-07-24T14:07:02;2.60;;;2.40;;
77310;SDS011;66371;52.714;5.074;2023-07-24T14:09:28;3.75;;;2.08;;
77310;SDS011;66371;52.714;5.074;2023-07-24T14:11:53;5.75;;;2.78;;
77310;SDS011;66371;52.714;5.074;2023-07-24T14:14:19;3.80;;;2.20;;
77310;SDS011;66371;52.714;5.074;2023-07-24T14:16:44;2.40;;;2.22;;
77310;SDS011;66371;52.714;5.074;2023-07-24T14:19:09;3.03;;;2.67;;
77310;SDS011;66371;52.714;5.074;2023-07-24T14:21:35;3.42;;;2.80;;
77310;SDS011;66371;52.714;5.074;2023-07-24T14:24:00;4.37;;;2.93;;
77310;SDS011;66371;52.714;5.074;2023-07-24T14:26:25;2.33;;;2.00;;
77310;SDS011;66371;52.714;5.074;2023-07-24T14:28:51;2.80;;;2.28;;
77310;SDS011;66371;52.714;5.074;2023-07-24T14:31:17;2.58;;;1.98;;
77310;SDS011;66371;52.714;5.074;2023-07-24T14:33:42;3.70;;;2.85;;
77310;SDS011;66371;52.714;5.074;2023-07-24T14:36:08;2.73;;;2.17;;
77310;SDS011;66371;52.714;5.074;2023-07-24T14:38:33;3.83;;;2.87;;
77310;SDS011;66371;52.714;5.074;2023-07-24T14:40:58;3.57;;;3.03;;
77310;SDS011;66371;52.714;5.074;2023-07-24T14:43:23;3.60;;;2.50;;